sensor_id;sensor_type;location;lat;lon;timestamp;temperature;humidity
2941;DHT22;1480;51.456;6.670;2023-02-03T00:00:05;9.80;99.90
2941;DHT22;1480;51.456;6.670;2023-02-03T00:02:36;9.80;99.90
2941;DHT22;1480;51.456;6.670;2023-02-03T00:05:04;9.80;99.90
2941;DHT22;1480;51.456;6.670;2023-02-03T00:07:32;9.80;99.90
2941;DHT22;1480;51.456;6.670;2023-02-03T00:10:01;9.80;99.90
2941;DHT22;1480;51.456;6.670;2023-02-03T00:12:28;9.70;99.90
2941;DHT22;1480;51.456;6.670;2023-02-03T00:14:55;9.80;99.90
2941;DHT22;1480;51.456;6.670;2023-02-03T00:17:22;9.90;99.90
2941;DHT22;1480;51.456;6.670;2023-02-03T00:19:49;9.80;99.90
2941;DHT22;1480;51.456;6.670;2023-02-03T00:22:16;9.80;99.90
2941;DHT22;1480;51.456;6.670;2023-02-03T00:24:44;9.80;99.90
2941;DHT22;1480;51.456;6.670;2023-02-03T00:27:11;9.90;99.90
2941;DHT22;1480;51.456;6.670;2023-02-03T00:29:38;9.80;99.90
2941;DHT22;1480;51.456;6.670;2023-02-03T00:32:05;9.70;99.90
2941;DHT22;1480;51.456;6.670;2023-02-03T00:34:32;9.90;99.90
2941;DHT22;1480;51.456;6.670;2023-02-03T00:37:01;9.70;99.90
2941;DHT22;1480;51.456;6.670;2023-02-03T00:39:29;9.70;99.90
2941;DHT22;1480;51.456;6.670;2023-02-03T00:41:58;9.70;99.90
2941;DHT22;1480;51.456;6.670;2023-02-03T00:44:25;9.80;99.90
2941;DHT22;1480;51.456;6.670;2023-02-03T00:46:51;9.90;99.90
2941;DHT22;1480;51.456;6.670;2023-02-03T00:49:20;9.80;99.90
2941;DHT22;1480;51.456;6.670;2023-02-03T00:51:49;9.90;99.90
2941;DHT22;1480;51.456;6.670;2023-02-03T00:54:16;9.80;99.90
2941;DHT22;1480;51.456;6.670;2023-02-03T00:56:43;9.90;99.90
2941;DHT22;1480;51.456;6.670;2023-02-03T00:59:12;9.70;99.90
2941;DHT22;1480;51.456;6.670;2023-02-03T01:01:39;9.90;99.90
2941;DHT22;1480;51.456;6.670;2023-02-03T01:04:07;9.90;99.90
2941;DHT22;1480;51.456;6.670;2023-02-03T01:06:34;9.80;99.90
2941;DHT22;1480;51.456;6.670;2023-02-03T01:09:01;10.00;99.90
2941;DHT22;1480;51.456;6.670;2023-02-03T01:11:28;10.00;99.90
2941;DHT22;1480;51.456;6.670;2023-02-03T01:13:56;10.00;99.90
2941;DHT22;1480;51.456;6.670;2023-02-03T01:16:30;9.90;99.90
2941;DHT22;1480;51.456;6.670;2023-02-03T01:19:01;9.80;99.90
2941;DHT22;1480;51.456;6.670;2023-02-03T01:21:28;9.90;99.90
2941;DHT22;1480;51.456;6.670;2023-02-03T01:23:55;10.00;99.90
2941;DHT22;1480;51.456;6.670;2023-02-03T01:26:22;9.90;99.90
2941;DHT22;1480;51.456;6.670;2023-02-03T01:28:50;10.00;99.90
2941;DHT22;1480;51.456;6.670;2023-02-03T01:31:20;9.90;99.80
2941;DHT22;1480;51.456;6.670;2023-02-03T01:33:50;9.90;99.90
2941;DHT22;1480;51.456;6.670;2023-02-03T01:36:20;10.00;99.90
2941;DHT22;1480;51.456;6.670;2023-02-03T01:38:48;9.80;99.80
2941;DHT22;1480;51.456;6.670;2023-02-03T01:41:18;10.00;99.90
2941;DHT22;1480;51.456;6.670;2023-02-03T01:43:47;10.00;99.70
2941;DHT22;1480;51.456;6.670;2023-02-03T01:46:24;10.00;99.00
2941;DHT22;1480;51.456;6.670;2023-02-03T01:48:55;10.10;99.00
2941;DHT22;1480;51.456;6.670;2023-02-03T01:51:24;10.10;99.40
2941;DHT22;1480;51.456;6.670;2023-02-03T01:53:52;10.10;99.20
2941;DHT22;1480;51.456;6.670;2023-02-03T01:56:20;10.00;98.80
2941;DHT22;1480;51.456;6.670;2023-02-03T01:58:48;10.00;98.50
2941;DHT22;1480;51.456;6.670;2023-02-03T02:01:15;10.10;98.90
2941;DHT22;1480;51.456;6.670;2023-02-03T02:03:45;10.10;98.10
2941;DHT22;1480;51.456;6.670;2023-02-03T02:06:15;10.10;98.20
2941;DHT22;1480;51.456;6.670;2023-02-03T02:08:46;10.10;98.30
2941;DHT22;1480;51.456;6.670;2023-02-03T02:11:13;10.10;98.00
2941;DHT22;1480;51.456;6.670;2023-02-03T02:13:41;10.10;98.40
2941;DHT22;1480;51.456;6.670;2023-02-03T02:16:14;10.00;98.60
2941;DHT22;1480;51.456;6.670;2023-02-03T02:18:51;9.90;98.20
2941;DHT22;1480;51.456;6.670;2023-02-03T02:21:40;9.90;99.20
2941;DHT22;1480;51.456;6.670;2023-02-03T02:27:30;10.00;98.30
2941;DHT22;1480;51.456;6.670;2023-02-03T02:30:23;10.00;98.00
2941;DHT22;1480;51.456;6.670;2023-02-03T02:33:09;10.00;98.10
2941;DHT22;1480;51.456;6.670;2023-02-03T02:35:46;10.00;98.10
2941;DHT22;1480;51.456;6.670;2023-02-03T02:38:27;10.10;98.30
2941;DHT22;1480;51.456;6.670;2023-02-03T02:41:06;10.00;98.10
2941;DHT22;1480;51.456;6.670;2023-02-03T02:43:41;10.00;97.80
2941;DHT22;1480;51.456;6.670;2023-02-03T02:46:36;10.00;97.60
2941;DHT22;1480;51.456;6.670;2023-02-03T02:49:11;9.90;97.90
2941;DHT22;1480;51.456;6.670;2023-02-03T02:51:41;9.90;97.90
2941;DHT22;1480;51.456;6.670;2023-02-03T02:54:13;10.00;97.60
2941;DHT22;1480;51.456;6.670;2023-02-03T02:56:43;9.90;97.40
2941;DHT22;1480;51.456;6.670;2023-02-03T02:59:15;10.00;97.60
2941;DHT22;1480;51.456;6.670;2023-02-03T03:01:42;9.80;97.60
2941;DHT22;1480;51.456;6.670;2023-02-03T03:04:13;9.90;97.50
2941;DHT22;1480;51.456;6.670;2023-02-03T03:06:47;9.90;96.90
2941;DHT22;1480;51.456;6.670;2023-02-03T03:09:23;9.80;97.40
2941;DHT22;1480;51.456;6.670;2023-02-03T03:11:56;10.00;96.90
2941;DHT22;1480;51.456;6.670;2023-02-03T03:14:27;10.00;97.10
2941;DHT22;1480;51.456;6.670;2023-02-03T03:16:59;10.00;97.00
2941;DHT22;1480;51.456;6.670;2023-02-03T03:19:35;10.00;96.70
2941;DHT22;1480;51.456;6.670;2023-02-03T03:22:05;10.00;96.30
2941;DHT22;1480;51.456;6.670;2023-02-03T03:24:42;10.00;96.10
2941;DHT22;1480;51.456;6.670;2023-02-03T03:27:13;10.00;96.10
2941;DHT22;1480;51.456;6.670;2023-02-03T03:29:43;10.10;95.80
2941;DHT22;1480;51.456;6.670;2023-02-03T03:32:14;10.00;95.90
2941;DHT22;1480;51.456;6.670;2023-02-03T03:34:43;9.90;96.10
2941;DHT22;1480;51.456;6.670;2023-02-03T03:37:13;10.00;95.70
2941;DHT22;1480;51.456;6.670;2023-02-03T03:39:47;10.10;95.80
2941;DHT22;1480;51.456;6.670;2023-02-03T03:42:21;10.00;95.60
2941;DHT22;1480;51.456;6.670;2023-02-03T03:44:56;10.00;95.30
2941;DHT22;1480;51.456;6.670;2023-02-03T03:47:29;10.00;95.20
2941;DHT22;1480;51.456;6.670;2023-02-03T03:50:18;10.00;95.00
2941;DHT22;1480;51.456;6.670;2023-02-03T03:52:49;10.10;94.50
2941;DHT22;1480;51.456;6.670;2023-02-03T03:55:19;10.00;95.30
2941;DHT22;1480;51.456;6.670;2023-02-03T03:57:53;10.00;94.90
2941;DHT22;1480;51.456;6.670;2023-02-03T04:00:22;10.10;94.50
2941;DHT22;1480;51.456;6.670;2023-02-03T04:02:53;10.10;94.50
2941;DHT22;1480;51.456;6.670;2023-02-03T04:05:23;10.20;94.30
2941;DHT22;1480;51.456;6.670;2023-02-03T04:07:51;10.10;93.80
2941;DHT22;1480;51.456;6.670;2023-02-03T04:10:28;10.20;94.10
2941;DHT22;1480;51.456;6.670;2023-02-03T04:12:58;10.30;93.70
2941;DHT22;1480;51.456;6.670;2023-02-03T04:15:26;10.20;93.90
2941;DHT22;1480;51.456;6.670;2023-02-03T04:17:54;10.10;93.50
2941;DHT22;1480;51.456;6.670;2023-02-03T04:20:24;10.10;93.70
2941;DHT22;1480;51.456;6.670;2023-02-03T04:22:52;10.10;93.80
2941;DHT22;1480;51.456;6.670;2023-02-03T04:25:19;10.20;93.60
2941;DHT22;1480;51.456;6.670;2023-02-03T04:27:46;10.20;93.80
2941;DHT22;1480;51.456;6.670;2023-02-03T04:30:17;10.10;93.60
2941;DHT22;1480;51.456;6.670;2023-02-03T04:32:48;10.20;93.20
2941;DHT22;1480;51.456;6.670;2023-02-03T04:35:16;10.10;93.20
2941;DHT22;1480;51.456;6.670;2023-02-03T04:37:44;10.20;93.30
2941;DHT22;1480;51.456;6.670;2023-02-03T04:40:12;10.10;92.80
2941;DHT22;1480;51.456;6.670;2023-02-03T04:42:40;10.00;93.00
2941;DHT22;1480;51.456;6.670;2023-02-03T04:45:11;10.20;92.80
2941;DHT22;1480;51.456;6.670;2023-02-03T04:47:38;10.20;93.00
2941;DHT22;1480;51.456;6.670;2023-02-03T04:50:07;10.30;92.80
2941;DHT22;1480;51.456;6.670;2023-02-03T04:52:34;10.20;92.40
2941;DHT22;1480;51.456;6.670;2023-02-03T04:55:02;10.20;92.90
2941;DHT22;1480;51.456;6.670;2023-02-03T04:57:30;10.20;92.70
2941;DHT22;1480;51.456;6.670;2023-02-03T05:00:01;10.20;93.10
2941;DHT22;1480;51.456;6.670;2023-02-03T05:02:30;10.20;92.70
2941;DHT22;1480;51.456;6.670;2023-02-03T05:05:00;10.20;92.80
2941;DHT22;1480;51.456;6.670;2023-02-03T05:07:27;10.10;92.40
2941;DHT22;1480;51.456;6.670;2023-02-03T05:09:55;10.20;92.30
2941;DHT22;1480;51.456;6.670;2023-02-03T05:12:24;10.20;92.30
2941;DHT22;1480;51.456;6.670;2023-02-03T05:14:52;10.20;92.00
2941;DHT22;1480;51.456;6.670;2023-02-03T05:17:19;10.20;92.20
2941;DHT22;1480;51.456;6.670;2023-02-03T05:19:46;10.20;92.30
2941;DHT22;1480;51.456;6.670;2023-02-03T05:22:13;10.10;92.20
2941;DHT22;1480;51.456;6.670;2023-02-03T05:24:40;10.30;92.10
2941;DHT22;1480;51.456;6.670;2023-02-03T05:27:08;10.10;91.70
2941;DHT22;1480;51.456;6.670;2023-02-03T05:29:37;10.20;91.90
2941;DHT22;1480;51.456;6.670;2023-02-03T05:32:05;10.10;91.80
2941;DHT22;1480;51.456;6.670;2023-02-03T05:34:32;10.20;91.60
2941;DHT22;1480;51.456;6.670;2023-02-03T05:37:05;10.30;91.20
2941;DHT22;1480;51.456;6.670;2023-02-03T05:39:38;10.20;91.70
2941;DHT22;1480;51.456;6.670;2023-02-03T05:42:06;10.30;91.70
2941;DHT22;1480;51.456;6.670;2023-02-03T05:44:32;10.20;91.40
2941;DHT22;1480;51.456;6.670;2023-02-03T05:47:01;10.20;91.00
2941;DHT22;1480;51.456;6.670;2023-02-03T05:49:32;10.20;91.00
2941;DHT22;1480;51.456;6.670;2023-02-03T05:52:02;10.20;91.20
2941;DHT22;1480;51.456;6.670;2023-02-03T05:54:29;10.40;91.20
2941;DHT22;1480;51.456;6.670;2023-02-03T05:56:56;10.20;90.70
2941;DHT22;1480;51.456;6.670;2023-02-03T05:59:24;10.30;91.30
2941;DHT22;1480;51.456;6.670;2023-02-03T06:01:56;10.30;91.00
2941;DHT22;1480;51.456;6.670;2023-02-03T06:04:25;10.40;91.10
2941;DHT22;1480;51.456;6.670;2023-02-03T06:06:52;10.20;91.10
2941;DHT22;1480;51.456;6.670;2023-02-03T06:09:19;10.30;91.60
2941;DHT22;1480;51.456;6.670;2023-02-03T06:11:46;10.30;91.60
2941;DHT22;1480;51.456;6.670;2023-02-03T06:14:13;10.30;91.40
2941;DHT22;1480;51.456;6.670;2023-02-03T06:16:40;10.30;91.40
2941;DHT22;1480;51.456;6.670;2023-02-03T06:19:07;10.30;91.00
2941;DHT22;1480;51.456;6.670;2023-02-03T06:21:35;10.30;90.80
2941;DHT22;1480;51.456;6.670;2023-02-03T06:24:02;10.30;91.10
2941;DHT22;1480;51.456;6.670;2023-02-03T06:26:29;10.40;91.00
2941;DHT22;1480;51.456;6.670;2023-02-03T06:28:56;10.40;90.60
2941;DHT22;1480;51.456;6.670;2023-02-03T06:31:24;10.40;90.80
2941;DHT22;1480;51.456;6.670;2023-02-03T06:33:52;10.40;90.70
2941;DHT22;1480;51.456;6.670;2023-02-03T06:36:21;10.40;90.80
2941;DHT22;1480;51.456;6.670;2023-02-03T06:38:50;10.40;90.30
2941;DHT22;1480;51.456;6.670;2023-02-03T06:41:17;10.40;90.40
2941;DHT22;1480;51.456;6.670;2023-02-03T06:43:44;10.40;90.50
2941;DHT22;1480;51.456;6.670;2023-02-03T06:46:11;10.40;90.30
2941;DHT22;1480;51.456;6.670;2023-02-03T06:48:37;10.50;90.50
2941;DHT22;1480;51.456;6.670;2023-02-03T06:51:04;10.50;90.40
2941;DHT22;1480;51.456;6.670;2023-02-03T06:53:31;10.40;90.10
2941;DHT22;1480;51.456;6.670;2023-02-03T06:56:00;10.30;90.40
2941;DHT22;1480;51.456;6.670;2023-02-03T06:58:28;10.50;90.10
2941;DHT22;1480;51.456;6.670;2023-02-03T07:00:55;10.40;90.00
2941;DHT22;1480;51.456;6.670;2023-02-03T07:03:22;10.50;90.00
2941;DHT22;1480;51.456;6.670;2023-02-03T07:05:49;10.50;90.30
2941;DHT22;1480;51.456;6.670;2023-02-03T07:08:16;10.40;90.10
2941;DHT22;1480;51.456;6.670;2023-02-03T07:10:43;10.50;89.80
2941;DHT22;1480;51.456;6.670;2023-02-03T07:13:12;10.50;90.30
2941;DHT22;1480;51.456;6.670;2023-02-03T07:15:38;10.50;89.90
2941;DHT22;1480;51.456;6.670;2023-02-03T07:18:05;10.60;90.00
2941;DHT22;1480;51.456;6.670;2023-02-03T07:20:34;10.50;89.70
2941;DHT22;1480;51.456;6.670;2023-02-03T07:23:01;10.40;90.00
2941;DHT22;1480;51.456;6.670;2023-02-03T07:25:30;10.50;90.20
2941;DHT22;1480;51.456;6.670;2023-02-03T07:27:56;10.40;89.90
2941;DHT22;1480;51.456;6.670;2023-02-03T07:30:25;10.40;90.00
2941;DHT22;1480;51.456;6.670;2023-02-03T07:32:52;10.50;90.10
2941;DHT22;1480;51.456;6.670;2023-02-03T07:35:20;10.50;90.20
2941;DHT22;1480;51.456;6.670;2023-02-03T07:37:47;10.50;90.00
2941;DHT22;1480;51.456;6.670;2023-02-03T07:40:14;10.40;89.60
2941;DHT22;1480;51.456;6.670;2023-02-03T07:42:41;10.50;90.10
2941;DHT22;1480;51.456;6.670;2023-02-03T07:45:10;10.50;89.70
2941;DHT22;1480;51.456;6.670;2023-02-03T07:47:39;10.50;89.50
2941;DHT22;1480;51.456;6.670;2023-02-03T07:50:07;10.50;90.00
2941;DHT22;1480;51.456;6.670;2023-02-03T07:52:34;10.50;89.40
2941;DHT22;1480;51.456;6.670;2023-02-03T07:55:02;10.60;89.50
2941;DHT22;1480;51.456;6.670;2023-02-03T07:57:30;10.60;89.40
2941;DHT22;1480;51.456;6.670;2023-02-03T07:59:57;10.50;89.30
2941;DHT22;1480;51.456;6.670;2023-02-03T08:02:24;10.50;89.90
2941;DHT22;1480;51.456;6.670;2023-02-03T08:04:54;10.60;89.30
2941;DHT22;1480;51.456;6.670;2023-02-03T08:07:23;10.70;89.50
2941;DHT22;1480;51.456;6.670;2023-02-03T08:09:52;10.60;89.70
2941;DHT22;1480;51.456;6.670;2023-02-03T08:12:19;10.60;89.60
2941;DHT22;1480;51.456;6.670;2023-02-03T08:14:48;10.60;89.70
2941;DHT22;1480;51.456;6.670;2023-02-03T08:17:16;10.60;89.90
2941;DHT22;1480;51.456;6.670;2023-02-03T08:19:45;10.60;89.80
2941;DHT22;1480;51.456;6.670;2023-02-03T08:22:14;10.70;89.30
2941;DHT22;1480;51.456;6.670;2023-02-03T08:24:41;10.60;89.90
2941;DHT22;1480;51.456;6.670;2023-02-03T08:27:10;10.60;89.20
2941;DHT22;1480;51.456;6.670;2023-02-03T08:29:37;10.50;89.80
2941;DHT22;1480;51.456;6.670;2023-02-03T08:32:04;10.60;89.60
2941;DHT22;1480;51.456;6.670;2023-02-03T08:34:34;10.60;89.70
2941;DHT22;1480;51.456;6.670;2023-02-03T08:37:01;10.70;89.70
2941;DHT22;1480;51.456;6.670;2023-02-03T08:39:32;10.70;89.60
2941;DHT22;1480;51.456;6.670;2023-02-03T08:42:04;10.60;89.50
2941;DHT22;1480;51.456;6.670;2023-02-03T08:44:31;10.60;89.40
2941;DHT22;1480;51.456;6.670;2023-02-03T08:46:59;10.70;89.70
2941;DHT22;1480;51.456;6.670;2023-02-03T08:49:28;10.60;89.80
2941;DHT22;1480;51.456;6.670;2023-02-03T08:51:56;10.70;89.40
2941;DHT22;1480;51.456;6.670;2023-02-03T08:54:24;10.70;89.30
2941;DHT22;1480;51.456;6.670;2023-02-03T08:56:53;10.70;89.60
2941;DHT22;1480;51.456;6.670;2023-02-03T08:59:20;10.60;89.70
2941;DHT22;1480;51.456;6.670;2023-02-03T09:01:47;10.60;89.30
2941;DHT22;1480;51.456;6.670;2023-02-03T09:04:16;10.70;89.50
2941;DHT22;1480;51.456;6.670;2023-02-03T09:06:44;10.60;89.50
2941;DHT22;1480;51.456;6.670;2023-02-03T09:09:12;10.70;89.60
2941;DHT22;1480;51.456;6.670;2023-02-03T09:11:39;10.70;89.40
2941;DHT22;1480;51.456;6.670;2023-02-03T09:14:08;10.70;89.60
2941;DHT22;1480;51.456;6.670;2023-02-03T09:16:37;10.80;89.50
2941;DHT22;1480;51.456;6.670;2023-02-03T09:19:04;10.70;89.40
2941;DHT22;1480;51.456;6.670;2023-02-03T09:21:32;10.50;89.90
2941;DHT22;1480;51.456;6.670;2023-02-03T09:23:59;10.70;89.90
2941;DHT22;1480;51.456;6.670;2023-02-03T09:26:27;10.80;89.80
2941;DHT22;1480;51.456;6.670;2023-02-03T09:28:54;10.80;89.90
2941;DHT22;1480;51.456;6.670;2023-02-03T09:31:22;10.80;89.90
2941;DHT22;1480;51.456;6.670;2023-02-03T09:33:49;10.80;89.60
2941;DHT22;1480;51.456;6.670;2023-02-03T09:36:16;10.80;90.00
2941;DHT22;1480;51.456;6.670;2023-02-03T09:38:43;10.90;90.00
2941;DHT22;1480;51.456;6.670;2023-02-03T09:41:18;10.90;89.90
2941;DHT22;1480;51.456;6.670;2023-02-03T09:43:54;10.80;89.40
2941;DHT22;1480;51.456;6.670;2023-02-03T09:46:28;11.00;89.90
2941;DHT22;1480;51.456;6.670;2023-02-03T09:49:03;10.90;89.50
2941;DHT22;1480;51.456;6.670;2023-02-03T09:51:36;10.90;89.80
2941;DHT22;1480;51.456;6.670;2023-02-03T09:54:12;10.90;89.40
2941;DHT22;1480;51.456;6.670;2023-02-03T09:56:42;10.90;89.90
2941;DHT22;1480;51.456;6.670;2023-02-03T09:59:15;10.90;89.80
2941;DHT22;1480;51.456;6.670;2023-02-03T10:01:51;11.00;89.60
2941;DHT22;1480;51.456;6.670;2023-02-03T10:04:30;11.00;89.60
2941;DHT22;1480;51.456;6.670;2023-02-03T10:07:06;11.00;90.20
2941;DHT22;1480;51.456;6.670;2023-02-03T10:09:48;11.10;89.90
2941;DHT22;1480;51.456;6.670;2023-02-03T10:18:23;11.20;89.50
2941;DHT22;1480;51.456;6.670;2023-02-03T10:20:53;11.20;89.50
2941;DHT22;1480;51.456;6.670;2023-02-03T10:23:26;11.30;89.80
2941;DHT22;1480;51.456;6.670;2023-02-03T10:25:55;11.30;89.50
2941;DHT22;1480;51.456;6.670;2023-02-03T10:28:25;11.30;89.30
2941;DHT22;1480;51.456;6.670;2023-02-03T10:30:55;11.40;88.90
2941;DHT22;1480;51.456;6.670;2023-02-03T10:33:26;11.30;88.80
2941;DHT22;1480;51.456;6.670;2023-02-03T10:35:56;11.40;88.90
2941;DHT22;1480;51.456;6.670;2023-02-03T10:38:35;11.30;89.20
2941;DHT22;1480;51.456;6.670;2023-02-03T10:41:04;11.40;89.60
2941;DHT22;1480;51.456;6.670;2023-02-03T10:43:32;11.30;89.10
2941;DHT22;1480;51.456;6.670;2023-02-03T10:46:17;11.30;89.10
2941;DHT22;1480;51.456;6.670;2023-02-03T10:48:46;11.30;89.00
2941;DHT22;1480;51.456;6.670;2023-02-03T10:51:19;11.40;89.50
2941;DHT22;1480;51.456;6.670;2023-02-03T10:53:46;11.50;89.30
2941;DHT22;1480;51.456;6.670;2023-02-03T10:56:22;11.40;89.20
2941;DHT22;1480;51.456;6.670;2023-02-03T10:58:52;11.40;89.50
2941;DHT22;1480;51.456;6.670;2023-02-03T11:01:22;11.30;89.40
2941;DHT22;1480;51.456;6.670;2023-02-03T11:03:57;11.40;89.80
2941;DHT22;1480;51.456;6.670;2023-02-03T11:06:25;11.50;89.20
2941;DHT22;1480;51.456;6.670;2023-02-03T11:08:52;11.40;88.80
2941;DHT22;1480;51.456;6.670;2023-02-03T11:11:24;11.50;88.90
2941;DHT22;1480;51.456;6.670;2023-02-03T11:14:09;11.50;89.30
2941;DHT22;1480;51.456;6.670;2023-02-03T11:16:37;11.50;89.70
2941;DHT22;1480;51.456;6.670;2023-02-03T11:19:09;11.50;89.50
2941;DHT22;1480;51.456;6.670;2023-02-03T11:21:42;11.50;89.60
2941;DHT22;1480;51.456;6.670;2023-02-03T11:24:17;11.60;89.50
2941;DHT22;1480;51.456;6.670;2023-02-03T11:26:48;11.50;89.60
2941;DHT22;1480;51.456;6.670;2023-02-03T11:29:18;11.40;89.60
2941;DHT22;1480;51.456;6.670;2023-02-03T11:31:50;11.50;89.40
2941;DHT22;1480;51.456;6.670;2023-02-03T11:34:22;11.40;89.60
2941;DHT22;1480;51.456;6.670;2023-02-03T11:36:50;11.30;89.60
2941;DHT22;1480;51.456;6.670;2023-02-03T11:39:25;11.40;89.60
2941;DHT22;1480;51.456;6.670;2023-02-03T11:41:53;11.40;89.90
2941;DHT22;1480;51.456;6.670;2023-02-03T11:44:23;11.50;89.60
2941;DHT22;1480;51.456;6.670;2023-02-03T11:46:54;11.50;89.90
2941;DHT22;1480;51.456;6.670;2023-02-03T11:52:44;11.60;89.80
2941;DHT22;1480;51.456;6.670;2023-02-03T11:55:38;11.60;90.30
2941;DHT22;1480;51.456;6.670;2023-02-03T11:58:32;11.60;89.90
2941;DHT22;1480;51.456;6.670;2023-02-03T12:01:09;11.60;90.00
2941;DHT22;1480;51.456;6.670;2023-02-03T12:04:01;11.60;89.80
2941;DHT22;1480;51.456;6.670;2023-02-03T12:06:40;11.60;89.90
2941;DHT22;1480;51.456;6.670;2023-02-03T12:09:22;11.50;90.20
2941;DHT22;1480;51.456;6.670;2023-02-03T12:15:05;11.50;90.30
2941;DHT22;1480;51.456;6.670;2023-02-03T12:17:56;11.70;89.90
2941;DHT22;1480;51.456;6.670;2023-02-03T12:20:38;11.60;89.70
2941;DHT22;1480;51.456;6.670;2023-02-03T12:23:17;11.60;89.80
2941;DHT22;1480;51.456;6.670;2023-02-03T12:25:58;11.70;89.20
2941;DHT22;1480;51.456;6.670;2023-02-03T12:28:42;11.70;89.80
2941;DHT22;1480;51.456;6.670;2023-02-03T12:31:14;11.80;89.80
2941;DHT22;1480;51.456;6.670;2023-02-03T12:33:47;11.70;89.80
2941;DHT22;1480;51.456;6.670;2023-02-03T12:36:21;11.70;89.60
2941;DHT22;1480;51.456;6.670;2023-02-03T12:38:53;11.70;89.30
2941;DHT22;1480;51.456;6.670;2023-02-03T12:41:25;11.80;89.50
2941;DHT22;1480;51.456;6.670;2023-02-03T12:43:58;11.90;89.40
2941;DHT22;1480;51.456;6.670;2023-02-03T12:46:29;11.90;89.20
2941;DHT22;1480;51.456;6.670;2023-02-03T12:49:01;11.90;89.40
2941;DHT22;1480;51.456;6.670;2023-02-03T12:51:35;11.90;89.20
2941;DHT22;1480;51.456;6.670;2023-02-03T12:54:28;11.90;89.30
2941;DHT22;1480;51.456;6.670;2023-02-03T12:57:04;11.90;88.90
2941;DHT22;1480;51.456;6.670;2023-02-03T12:59:35;11.90;89.50
2941;DHT22;1480;51.456;6.670;2023-02-03T13:02:10;11.90;90.00
2941;DHT22;1480;51.456;6.670;2023-02-03T13:04:43;11.90;90.40
2941;DHT22;1480;51.456;6.670;2023-02-03T13:07:17;11.90;90.30
2941;DHT22;1480;51.456;6.670;2023-02-03T13:09:48;11.80;90.50
2941;DHT22;1480;51.456;6.670;2023-02-03T13:12:26;11.70;90.70
2941;DHT22;1480;51.456;6.670;2023-02-03T13:14:58;11.70;91.00
2941;DHT22;1480;51.456;6.670;2023-02-03T13:17:33;11.80;91.50
2941;DHT22;1480;51.456;6.670;2023-02-03T13:20:11;11.70;91.80
2941;DHT22;1480;51.456;6.670;2023-02-03T13:22:39;11.70;91.80
2941;DHT22;1480;51.456;6.670;2023-02-03T13:25:16;11.60;91.50
2941;DHT22;1480;51.456;6.670;2023-02-03T13:27:45;11.70;91.60
2941;DHT22;1480;51.456;6.670;2023-02-03T13:33:41;11.80;90.80
2941;DHT22;1480;51.456;6.670;2023-02-03T13:36:25;11.90;90.60
2941;DHT22;1480;51.456;6.670;2023-02-03T13:39:11;11.90;90.50
2941;DHT22;1480;51.456;6.670;2023-02-03T13:41:46;11.80;90.20
2941;DHT22;1480;51.456;6.670;2023-02-03T13:44:17;11.90;90.00
2941;DHT22;1480;51.456;6.670;2023-02-03T13:46:47;11.70;90.20
2941;DHT22;1480;51.456;6.670;2023-02-03T13:49:20;11.80;90.60
2941;DHT22;1480;51.456;6.670;2023-02-03T13:51:48;11.90;90.20
2941;DHT22;1480;51.456;6.670;2023-02-03T13:54:22;12.00;89.70
2941;DHT22;1480;51.456;6.670;2023-02-03T13:56:57;11.90;90.10
2941;DHT22;1480;51.456;6.670;2023-02-03T13:59:39;11.80;89.80
2941;DHT22;1480;51.456;6.670;2023-02-03T14:02:29;11.80;90.00
2941;DHT22;1480;51.456;6.670;2023-02-03T14:04:57;11.80;89.80
2941;DHT22;1480;51.456;6.670;2023-02-03T14:07:30;11.90;90.30
2941;DHT22;1480;51.456;6.670;2023-02-03T14:10:12;12.00;90.30
2941;DHT22;1480;51.456;6.670;2023-02-03T14:12:58;11.80;90.00
2941;DHT22;1480;51.456;6.670;2023-02-03T14:15:32;12.10;90.30
2941;DHT22;1480;51.456;6.670;2023-02-03T14:18:31;11.90;90.20
2941;DHT22;1480;51.456;6.670;2023-02-03T14:21:19;11.80;90.80
2941;DHT22;1480;51.456;6.670;2023-02-03T14:23:51;11.70;92.30
2941;DHT22;1480;51.456;6.670;2023-02-03T14:26:23;11.50;94.40
2941;DHT22;1480;51.456;6.670;2023-02-03T14:28:55;11.50;95.50
2941;DHT22;1480;51.456;6.670;2023-02-03T14:31:23;11.30;96.30
2941;DHT22;1480;51.456;6.670;2023-02-03T14:34:10;11.30;96.10
2941;DHT22;1480;51.456;6.670;2023-02-03T14:36:49;10.90;94.80
2941;DHT22;1480;51.456;6.670;2023-02-03T14:45:47;10.50;97.50
2941;DHT22;1480;51.456;6.670;2023-02-03T14:48:29;10.40;97.70
2941;DHT22;1480;51.456;6.670;2023-02-03T14:51:06;10.40;98.10
2941;DHT22;1480;51.456;6.670;2023-02-03T14:54:07;10.30;97.90
2941;DHT22;1480;51.456;6.670;2023-02-03T14:56:45;10.40;98.50
2941;DHT22;1480;51.456;6.670;2023-02-03T14:59:36;10.40;98.00
2941;DHT22;1480;51.456;6.670;2023-02-03T15:02:13;10.40;98.30
2941;DHT22;1480;51.456;6.670;2023-02-03T15:04:40;10.30;97.80
2941;DHT22;1480;51.456;6.670;2023-02-03T15:07:08;10.40;98.20
2941;DHT22;1480;51.456;6.670;2023-02-03T15:09:38;10.50;98.00
2941;DHT22;1480;51.456;6.670;2023-02-03T15:12:17;10.50;97.30
2941;DHT22;1480;51.456;6.670;2023-02-03T15:14:44;10.50;97.30
2941;DHT22;1480;51.456;6.670;2023-02-03T15:17:21;10.60;97.20
2941;DHT22;1480;51.456;6.670;2023-02-03T15:19:50;10.60;97.10
2941;DHT22;1480;51.456;6.670;2023-02-03T15:22:18;10.70;96.60
2941;DHT22;1480;51.456;6.670;2023-02-03T15:24:46;10.70;97.30
2941;DHT22;1480;51.456;6.670;2023-02-03T15:27:21;10.70;96.50
2941;DHT22;1480;51.456;6.670;2023-02-03T15:29:48;10.70;96.50
2941;DHT22;1480;51.456;6.670;2023-02-03T15:32:18;10.70;95.60
2941;DHT22;1480;51.456;6.670;2023-02-03T15:34:47;10.70;95.20
2941;DHT22;1480;51.456;6.670;2023-02-03T15:37:19;10.80;95.50
2941;DHT22;1480;51.456;6.670;2023-02-03T15:39:54;10.70;95.10
2941;DHT22;1480;51.456;6.670;2023-02-03T15:42:27;10.70;94.20
2941;DHT22;1480;51.456;6.670;2023-02-03T15:45:02;10.80;94.70
2941;DHT22;1480;51.456;6.670;2023-02-03T15:47:36;10.70;94.90
2941;DHT22;1480;51.456;6.670;2023-02-03T15:50:14;10.70;95.00
2941;DHT22;1480;51.456;6.670;2023-02-03T15:52:48;10.70;95.20
2941;DHT22;1480;51.456;6.670;2023-02-03T15:55:19;10.70;94.60
2941;DHT22;1480;51.456;6.670;2023-02-03T15:57:49;10.70;93.80
2941;DHT22;1480;51.456;6.670;2023-02-03T16:00:28;10.70;94.00
2941;DHT22;1480;51.456;6.670;2023-02-03T16:02:58;10.60;93.90
2941;DHT22;1480;51.456;6.670;2023-02-03T16:05:27;10.70;93.40
2941;DHT22;1480;51.456;6.670;2023-02-03T16:07:55;10.70;93.20
2941;DHT22;1480;51.456;6.670;2023-02-03T16:10:25;10.70;92.90
2941;DHT22;1480;51.456;6.670;2023-02-03T16:12:53;10.70;93.00
2941;DHT22;1480;51.456;6.670;2023-02-03T16:15:21;10.60;92.50
2941;DHT22;1480;51.456;6.670;2023-02-03T16:17:54;10.70;92.40
2941;DHT22;1480;51.456;6.670;2023-02-03T16:20:26;10.70;92.80
2941;DHT22;1480;51.456;6.670;2023-02-03T16:23:05;10.60;92.40
2941;DHT22;1480;51.456;6.670;2023-02-03T16:25:33;10.40;92.80
2941;DHT22;1480;51.456;6.670;2023-02-03T16:28:03;10.50;92.50
2941;DHT22;1480;51.456;6.670;2023-02-03T16:30:53;10.60;92.40
2941;DHT22;1480;51.456;6.670;2023-02-03T16:33:38;10.50;92.10
2941;DHT22;1480;51.456;6.670;2023-02-03T16:36:24;10.60;91.70
2941;DHT22;1480;51.456;6.670;2023-02-03T16:39:11;10.60;92.00
2941;DHT22;1480;51.456;6.670;2023-02-03T16:41:57;10.60;92.00
2941;DHT22;1480;51.456;6.670;2023-02-03T16:44:42;10.60;91.90
2941;DHT22;1480;51.456;6.670;2023-02-03T16:47:28;10.70;91.80
2941;DHT22;1480;51.456;6.670;2023-02-03T16:50:14;10.60;91.80
2941;DHT22;1480;51.456;6.670;2023-02-03T16:53:00;10.50;91.90
2941;DHT22;1480;51.456;6.670;2023-02-03T16:55:27;10.50;91.90
2941;DHT22;1480;51.456;6.670;2023-02-03T16:59:52;10.00;94.70